Time;durP1;ratioP1;P1;durP2;ratioP2;P2;SDS_P1;SDS_P2;PMS_P1;PMS_P2;Temp;Humidity;BMP_temperature;BMP_pressure;BME280_temperature;BME280_humidity;BME280_pressure;Samples;Min_cycle;Max_cycle;Signal;HPM_P1;HPM_P2
2023/02/04 00:00:59;;;;;;;2.20;1.50;;;3.50;99.90;;;;;;4894469;29;20180;-75
2023/02/04 00:03:24;;;;;;;1.27;1.17;;;3.40;99.90;;;;;;4897592;29;20189;-75
2023/02/04 00:05:50;;;;;;;1.73;1.63;;;3.30;99.90;;;;;;4895382;29;20421;-74
2023/02/04 00:08:15;;;;;;;1.73;1.40;;;3.20;99.90;;;;;;4897836;29;20240;-73
2023/02/04 00:10:41;;;;;;;1.97;1.53;;;3.20;99.90;;;;;;4897099;29;20204;-74
2023/02/04 00:13:07;;;;;;;2.17;1.50;;;3.10;99.90;;;;;;4897869;29;20266;-75
2023/02/04 00:15:32;;;;;;;1.47;1.37;;;3.10;99.90;;;;;;4894848;29;20429;-74
2023/02/04 00:17:58;;;;;;;2.40;1.90;;;3.10;99.90;;;;;;4891272;29;20211;-74
2023/02/04 00:20:24;;;;;;;1.73;1.63;;;3.10;99.90;;;;;;4893900;29;20177;-74
2023/02/04 00:22:50;;;;;;;2.10;2.00;;;3.10;99.90;;;;;;4890154;29;20440;-74
2023/02/04 00:25:16;;;;;;;1.43;1.20;;;3.10;99.90;;;;;;4889983;29;20335;-74
2023/02/04 00:27:42;;;;;;;3.60;1.70;;;3.00;99.90;;;;;;4885551;29;20478;-74
2023/02/04 00:30:08;;;;;;;1.97;1.87;;;3.00;99.90;;;;;;4887283;29;20589;-75
2023/02/04 00:32:34;;;;;;;1.83;1.30;;;3.00;99.90;;;;;;4887544;29;20180;-74
2023/02/04 00:35:03;;;;;;;3.47;2.00;;;3.00;99.90;;;;;;4897437;29;20809;-74
2023/02/04 00:37:29;;;;;;;2.87;1.80;;;3.10;99.90;;;;;;4901776;29;20685;-73
2023/02/04 00:39:55;;;;;;;1.70;1.60;;;3.00;99.90;;;;;;4897034;29;20900;-73
2023/02/04 00:42:20;;;;;;;2.10;1.90;;;2.90;99.90;;;;;;4893498;29;20546;-74
2023/02/04 00:44:46;;;;;;;2.03;1.77;;;2.90;99.90;;;;;;4892552;29;20193;-73
2023/02/04 00:47:11;;;;;;;2.30;1.70;;;2.80;99.90;;;;;;4895135;29;20236;-74
2023/02/04 00:49:37;;;;;;;1.57;1.00;;;2.60;99.90;;;;;;4897188;29;20199;-74
2023/02/04 00:52:03;;;;;;;1.60;1.50;;;2.50;99.90;;;;;;4897627;29;20183;-73
2023/02/04 00:54:29;;;;;;;1.30;1.20;;;2.40;99.90;;;;;;4897326;29;20206;-74
2023/02/04 00:56:54;;;;;;;1.20;1.07;;;2.30;99.90;;;;;;4897001;29;20295;-73
2023/02/04 00:59:20;;;;;;;2.93;2.73;;;2.30;99.90;;;;;;4897105;29;20843;-73
2023/02/04 01:01:46;;;;;;;1.43;1.33;;;2.30;99.90;;;;;;4897461;29;20533;-73
2023/02/04 01:04:11;;;;;;;1.20;1.10;;;2.20;99.90;;;;;;4897643;29;20209;-75
2023/02/04 01:06:37;;;;;;;1.50;1.33;;;2.20;99.90;;;;;;4896299;29;21730;-74
2023/02/04 01:09:04;;;;;;;1.73;1.63;;;2.10;99.90;;;;;;4893335;29;20532;-74
2023/02/04 01:11:30;;;;;;;1.67;1.33;;;2.10;99.90;;;;;;4902333;29;20180;-74
2023/02/04 01:13:56;;;;;;;1.90;1.47;;;2.00;99.90;;;;;;4896721;29;20582;-74
2023/02/04 01:16:21;;;;;;;1.47;1.37;;;2.00;99.90;;;;;;4900829;29;20425;-74
2023/02/04 01:18:47;;;;;;;2.37;1.27;;;2.10;99.90;;;;;;4895422;29;20589;-74
2023/02/04 01:21:13;;;;;;;3.93;2.57;;;2.10;99.90;;;;;;4894754;29;20977;-74
2023/02/04 01:23:38;;;;;;;1.93;1.57;;;2.10;99.90;;;;;;4895373;29;20212;-74
2023/02/04 01:26:04;;;;;;;3.30;1.60;;;2.10;99.90;;;;;;4894983;29;20188;-75
2023/02/04 01:28:30;;;;;;;1.33;1.00;;;2.10;99.90;;;;;;4901449;29;20175;-74
2023/02/04 01:30:56;;;;;;;1.63;1.30;;;2.10;99.90;;;;;;4895995;29;20799;-74
2023/02/04 01:33:21;;;;;;;3.67;1.50;;;2.00;99.90;;;;;;4885060;29;20283;-72
2023/02/04 01:35:47;;;;;;;1.20;1.10;;;2.00;99.90;;;;;;4896702;29;20661;-75
2023/02/04 01:38:13;;;;;;;2.13;1.60;;;2.00;99.90;;;;;;4901588;29;20628;-73
2023/02/04 01:40:39;;;;;;;2.10;1.50;;;1.90;99.90;;;;;;4896640;29;20421;-75
2023/02/04 01:43:05;;;;;;;1.17;1.07;;;2.00;99.90;;;;;;4897252;29;20180;-75
2023/02/04 01:45:33;;;;;;;2.43;2.10;;;1.90;99.90;;;;;;4895697;29;20420;-74
2023/02/04 01:47:59;;;;;;;3.60;1.37;;;1.90;99.90;;;;;;4889292;29;20184;-74
2023/02/04 01:50:25;;;;;;;1.63;1.30;;;1.90;99.90;;;;;;4898496;29;20435;-74
2023/02/04 01:52:51;;;;;;;1.43;1.33;;;1.80;99.90;;;;;;4892285;29;20430;-75
2023/02/04 01:55:20;;;;;;;4.80;1.90;;;1.80;99.90;;;;;;4898557;29;20944;-75
2023/02/04 01:57:46;;;;;;;1.20;1.10;;;1.70;99.90;;;;;;4886858;29;20204;-75
2023/02/04 02:00:26;;;;;;;1.40;1.30;;;1.80;99.90;;;;;;4895220;29;20460;-74
2023/02/04 02:02:53;;;;;;;3.33;1.37;;;1.70;99.90;;;;;;4885988;29;20451;-74
2023/02/04 02:05:35;;;;;;;2.63;1.17;;;1.70;99.90;;;;;;4898178;29;20903;-74
2023/02/04 02:08:03;;;;;;;2.33;1.13;;;1.80;99.90;;;;;;4894624;29;20460;-73
2023/02/04 02:10:30;;;;;;;1.30;1.03;;;1.80;99.90;;;;;;4888498;29;20935;-74
2023/02/04 02:12:56;;;;;;;6.30;1.40;;;1.80;99.90;;;;;;4900189;29;20428;-74
2023/02/04 02:15:23;;;;;;;1.50;1.20;;;1.80;99.90;;;;;;4901783;29;20427;-73
2023/02/04 02:17:50;;;;;;;1.07;0.80;;;1.80;99.90;;;;;;4893888;29;20564;-73
2023/02/04 02:20:19;;;;;;;1.00;0.90;;;1.80;99.90;;;;;;4886872;29;20453;-73
2023/02/04 02:23:03;;;;;;;1.37;0.90;;;1.80;99.90;;;;;;4889120;29;20784;-74
2023/02/04 02:25:29;;;;;;;2.47;1.10;;;1.70;99.90;;;;;;4901410;29;20448;-74
2023/02/04 02:27:57;;;;;;;1.97;1.40;;;1.70;99.90;;;;;;4900385;29;20435;-74
2023/02/04 02:30:23;;;;;;;1.53;1.30;;;1.70;99.90;;;;;;4903973;29;20417;-73
2023/02/04 02:32:49;;;;;;;1.37;1.27;;;1.70;99.90;;;;;;4885559;29;20546;-74
2023/02/04 02:35:15;;;;;;;1.77;0.80;;;1.60;99.90;;;;;;4896032;29;20460;-73
2023/02/04 02:37:41;;;;;;;4.30;1.30;;;1.60;99.90;;;;;;4891004;29;20482;-74
2023/02/04 02:40:08;;;;;;;2.40;1.10;;;1.60;99.90;;;;;;4900186;29;20923;-74
2023/02/04 02:42:34;;;;;;;0.90;0.90;;;1.70;99.90;;;;;;4900651;29;20887;-74
2023/02/04 02:45:07;;;;;;;1.30;1.20;;;1.60;99.90;;;;;;4890329;29;20457;-74
2023/02/04 02:47:32;;;;;;;1.70;1.10;;;1.60;99.90;;;;;;4890780;29;20435;-75
2023/02/04 02:49:58;;;;;;;2.40;1.10;;;1.60;99.90;;;;;;4889636;29;20426;-74
2023/02/04 02:52:24;;;;;;;1.60;1.50;;;1.50;99.90;;;;;;4893208;29;20199;-74
2023/02/04 02:54:49;;;;;;;2.20;1.00;;;1.40;99.90;;;;;;4894944;29;20201;-74
2023/02/04 02:57:19;;;;;;;1.87;1.00;;;1.40;99.90;;;;;;4901707;29;20208;-74
2023/02/04 02:59:45;;;;;;;1.47;1.10;;;1.30;99.90;;;;;;4888538;29;20214;-74
2023/02/04 03:02:15;;;;;;;1.23;1.13;;;1.20;99.90;;;;;;4897023;29;20452;-74
2023/02/04 03:04:45;;;;;;;1.30;1.20;;;1.20;99.90;;;;;;4902580;29;20433;-75
2023/02/04 03:07:12;;;;;;;1.53;1.20;;;1.20;99.90;;;;;;4893646;29;20418;-75
2023/02/04 03:09:38;;;;;;;1.17;1.07;;;1.10;99.90;;;;;;4897722;29;20432;-74
2023/02/04 03:12:05;;;;;;;1.03;1.00;;;1.10;99.90;;;;;;4893000;29;20512;-73
2023/02/04 03:14:32;;;;;;;1.77;1.30;;;1.10;99.90;;;;;;4898041;29;20208;-75
2023/02/04 03:17:00;;;;;;;1.87;1.10;;;1.00;99.90;;;;;;4893438;29;20456;-74
2023/02/04 03:19:27;;;;;;;2.60;1.50;;;1.00;99.90;;;;;;4895914;29;20454;-74
2023/02/04 03:21:54;;;;;;;2.60;1.00;;;1.00;99.90;;;;;;4902815;29;20424;-75
2023/02/04 03:24:22;;;;;;;4.30;1.30;;;1.00;99.90;;;;;;4898213;29;20473;-75
2023/02/04 03:26:48;;;;;;;1.17;1.07;;;0.90;99.90;;;;;;4898307;29;20419;-75
2023/02/04 03:29:14;;;;;;;4.03;1.83;;;0.90;99.90;;;;;;4895721;29;20425;-75
2023/02/04 03:31:40;;;;;;;1.53;1.43;;;0.90;99.90;;;;;;4898443;29;20195;-75
2023/02/04 03:34:06;;;;;;;3.80;1.40;;;0.90;99.90;;;;;;4885530;29;20458;-75
2023/02/04 03:36:31;;;;;;;1.20;1.10;;;0.90;99.90;;;;;;4887804;29;20450;-75
2023/02/04 03:38:57;;;;;;;1.50;1.10;;;0.90;99.90;;;;;;4894939;29;20869;-75
2023/02/04 03:41:22;;;;;;;1.20;1.03;;;0.90;99.90;;;;;;4900849;29;20176;-75
2023/02/04 03:43:48;;;;;;;2.30;1.57;;;0.90;99.90;;;;;;4899048;29;20207;-75
2023/02/04 03:46:13;;;;;;;1.67;1.00;;;0.80;99.90;;;;;;4890083;29;20177;-74
2023/02/04 03:48:39;;;;;;;1.53;1.10;;;0.90;99.90;;;;;;4890772;29;20181;-74
2023/02/04 03:51:05;;;;;;;1.20;1.10;;;0.80;99.90;;;;;;4897187;29;20309;-74
2023/02/04 03:53:31;;;;;;;6.67;1.80;;;0.80;99.90;;;;;;4895670;29;20239;-75
2023/02/04 03:55:56;;;;;;;1.60;1.33;;;0.90;99.90;;;;;;4901825;29;20428;-74
2023/02/04 03:58:22;;;;;;;1.73;1.07;;;0.90;99.90;;;;;;4898380;29;20208;-75
2023/02/04 04:00:48;;;;;;;1.77;1.03;;;0.90;99.90;;;;;;4888570;29;20181;-75
2023/02/04 04:03:14;;;;;;;3.23;1.30;;;1.00;99.90;;;;;;4894304;29;20431;-75
2023/02/04 04:05:39;;;;;;;3.47;1.13;;;0.90;99.90;;;;;;4906027;29;20417;-74
2023/02/04 04:08:05;;;;;;;3.93;1.47;;;1.00;99.90;;;;;;4892000;29;20211;-74
2023/02/04 04:10:30;;;;;;;3.83;1.13;;;1.00;99.90;;;;;;4905470;29;20190;-75
2023/02/04 04:12:56;;;;;;;1.10;1.00;;;1.10;99.90;;;;;;4888933;29;20627;-74
2023/02/04 04:15:22;;;;;;;0.83;0.83;;;1.20;99.90;;;;;;4903781;29;20704;-73
2023/02/04 04:17:47;;;;;;;1.27;1.00;;;1.20;99.90;;;;;;4893078;29;20261;-74
2023/02/04 04:20:13;;;;;;;3.37;1.00;;;1.30;99.90;;;;;;4897101;29;20631;-74
2023/02/04 04:22:39;;;;;;;3.43;1.20;;;1.30;99.90;;;;;;4904838;29;20211;-74
2023/02/04 04:25:04;;;;;;;2.50;1.00;;;1.30;99.90;;;;;;4892213;29;20674;-74
2023/02/04 04:27:30;;;;;;;3.87;1.10;;;1.30;99.90;;;;;;4904830;29;20184;-74
2023/02/04 04:29:56;;;;;;;2.30;1.27;;;1.30;99.90;;;;;;4922358;23;21069;-70
2023/02/04 04:32:22;;;;;;;2.97;1.50;;;1.40;99.90;;;;;;4896963;29;20493;-70
2023/02/04 04:34:47;;;;;;;3.57;0.90;;;1.40;99.90;;;;;;4907452;29;20179;-70
2023/02/04 04:37:13;;;;;;;1.20;1.10;;;1.30;99.90;;;;;;4907618;29;20200;-70
2023/02/04 04:39:39;;;;;;;1.97;1.30;;;1.30;99.90;;;;;;4893383;29;20196;-69
2023/02/04 04:42:05;;;;;;;1.17;1.00;;;1.30;99.90;;;;;;4896798;29;20184;-69
2023/02/04 04:44:30;;;;;;;2.03;1.33;;;1.20;99.90;;;;;;4892144;29;20180;-70
2023/02/04 04:46:56;;;;;;;1.23;1.23;;;1.20;99.90;;;;;;4892650;29;20621;-69
2023/02/04 04:49:22;;;;;;;2.03;0.97;;;1.10;99.90;;;;;;4890224;29;20708;-70
2023/02/04 04:51:48;;;;;;;1.47;1.10;;;1.10;99.90;;;;;;4889041;29;20192;-69
2023/02/04 04:54:14;;;;;;;3.07;1.77;;;1.10;99.90;;;;;;4896760;29;20417;-69
2023/02/04 04:56:39;;;;;;;1.20;1.07;;;1.00;99.90;;;;;;4893773;29;20235;-69
2023/02/04 04:59:05;;;;;;;1.87;1.07;;;1.00;99.90;;;;;;4897270;29;20240;-69
2023/02/04 05:01:31;;;;;;;4.40;1.13;;;1.00;99.90;;;;;;4895057;29;20165;-69
2023/02/04 05:03:57;;;;;;;3.37;1.33;;;0.90;99.90;;;;;;4896533;29;20263;-69
2023/02/04 05:06:24;;;;;;;2.00;1.33;;;0.90;99.90;;;;;;4895674;29;20460;-69
2023/02/04 05:08:53;;;;;;;1.77;1.10;;;0.80;99.90;;;;;;4897060;29;20235;-70
2023/02/04 05:11:19;;;;;;;4.70;1.17;;;0.80;99.90;;;;;;4899605;29;20986;-69
2023/02/04 05:13:45;;;;;;;1.77;1.17;;;0.80;99.90;;;;;;4894325;29;20497;-69
2023/02/04 05:16:13;;;;;;;1.80;1.33;;;0.80;99.90;;;;;;4890916;29;20440;-69
2023/02/04 05:18:40;;;;;;;1.73;1.17;;;0.80;99.90;;;;;;4891105;29;20611;-70
2023/02/04 05:21:06;;;;;;;3.63;1.23;;;0.70;99.90;;;;;;4891227;29;20428;-69
2023/02/04 05:23:32;;;;;;;2.87;1.10;;;0.70;99.90;;;;;;4894775;29;20401;-69
2023/02/04 05:25:58;;;;;;;2.10;1.13;;;0.70;99.90;;;;;;4896869;29;20400;-69
2023/02/04 05:28:23;;;;;;;2.10;1.17;;;0.70;99.90;;;;;;4899204;29;20474;-70
2023/02/04 05:30:49;;;;;;;1.43;1.33;;;0.70;99.90;;;;;;4896225;29;20219;-70
2023/02/04 05:33:14;;;;;;;2.37;1.30;;;0.70;99.90;;;;;;4893797;29;20263;-69
2023/02/04 05:35:40;;;;;;;3.70;1.00;;;0.70;99.90;;;;;;4898327;29;20187;-69
2023/02/04 05:38:06;;;;;;;4.73;1.47;;;0.70;99.90;;;;;;4901013;29;20211;-70
2023/02/04 05:40:31;;;;;;;1.17;1.10;;;0.60;99.90;;;;;;4898332;29;20698;-71
2023/02/04 05:42:57;;;;;;;2.13;1.60;;;0.70;99.90;;;;;;4897138;29;20212;-71
2023/02/04 05:45:22;;;;;;;1.97;1.20;;;0.60;99.90;;;;;;4900058;29;20187;-70
2023/02/04 05:47:48;;;;;;;0.93;0.93;;;0.50;99.90;;;;;;4896629;29;20188;-71
2023/02/04 05:50:14;;;;;;;1.40;1.30;;;0.50;99.90;;;;;;4897066;29;20824;-70
2023/02/04 05:52:40;;;;;;;1.40;1.30;;;0.50;99.90;;;;;;4893246;29;20188;-70
2023/02/04 05:55:06;;;;;;;1.53;1.20;;;0.50;99.90;;;;;;4898524;29;20428;-70
2023/02/04 05:57:32;;;;;;;3.67;1.27;;;0.50;99.90;;;;;;4897676;29;20264;-70
2023/02/04 05:59:58;;;;;;;3.73;1.70;;;0.40;99.90;;;;;;4897759;29;20484;-70
2023/02/04 06:02:23;;;;;;;2.70;1.27;;;0.40;99.90;;;;;;4900030;29;20180;-71
2023/02/04 06:04:49;;;;;;;3.43;1.30;;;0.40;99.90;;;;;;4896500;29;20177;-70
2023/02/04 06:07:15;;;;;;;1.70;1.60;;;0.40;99.90;;;;;;4895419;29;20176;-69
2023/02/04 06:09:40;;;;;;;2.00;1.17;;;0.40;99.90;;;;;;4899040;29;20203;-70
2023/02/04 06:12:06;;;;;;;1.77;1.20;;;0.30;99.90;;;;;;4901486;29;20177;-69
2023/02/04 06:14:31;;;;;;;1.00;0.90;;;0.30;99.90;;;;;;4894095;29;20200;-71
2023/02/04 06:16:58;;;;;;;0.90;0.90;;;0.30;99.90;;;;;;4897067;29;20283;-69
2023/02/04 06:19:24;;;;;;;1.00;1.00;;;0.30;99.90;;;;;;4899179;29;20255;-70
2023/02/04 06:21:50;;;;;;;1.50;1.40;;;0.30;99.90;;;;;;4896615;29;20425;-70
2023/02/04 06:24:15;;;;;;;1.30;1.20;;;0.40;99.90;;;;;;4898676;29;20504;-69
2023/02/04 06:26:41;;;;;;;1.10;1.10;;;0.30;99.90;;;;;;4896142;29;20679;-69
2023/02/04 06:29:07;;;;;;;1.73;1.40;;;0.30;99.90;;;;;;4896355;29;20184;-70
2023/02/04 06:31:32;;;;;;;4.00;1.20;;;0.30;99.90;;;;;;4899066;29;20565;-69
2023/02/04 06:33:58;;;;;;;1.87;1.70;;;0.30;99.90;;;;;;4898064;29;20263;-68
2023/02/04 06:36:24;;;;;;;1.60;1.40;;;0.30;99.90;;;;;;4904974;29;20181;-70
2023/02/04 06:38:49;;;;;;;1.30;1.10;;;0.20;99.90;;;;;;4898685;29;20431;-69
2023/02/04 06:41:15;;;;;;;1.83;1.40;;;0.20;99.90;;;;;;4895163;29;20176;-70
2023/02/04 06:43:41;;;;;;;2.87;1.70;;;0.20;99.90;;;;;;4898810;29;20172;-69
2023/02/04 06:46:06;;;;;;;1.90;1.40;;;0.20;99.90;;;;;;4896815;29;20256;-69
2023/02/04 06:48:32;;;;;;;1.33;1.23;;;0.30;99.90;;;;;;4874479;29;20594;-69
2023/02/04 06:50:58;;;;;;;4.97;1.70;;;0.30;99.90;;;;;;4898655;29;20200;-69
2023/02/04 06:53:23;;;;;;;1.33;1.23;;;0.20;99.90;;;;;;4896882;29;20731;-70
2023/02/04 06:55:49;;;;;;;2.60;1.53;;;0.30;99.90;;;;;;4894791;29;20260;-70
2023/02/04 06:58:15;;;;;;;2.03;1.80;;;0.20;99.90;;;;;;4894393;29;20227;-70
2023/02/04 07:00:40;;;;;;;2.70;2.10;;;0.20;99.90;;;;;;4896823;29;20652;-72
2023/02/04 07:03:06;;;;;;;1.90;1.63;;;0.20;99.90;;;;;;4898857;29;20609;-69
2023/02/04 07:05:32;;;;;;;3.73;1.70;;;0.30;99.90;;;;;;4895626;29;20180;-69
2023/02/04 07:07:58;;;;;;;2.67;1.60;;;0.30;99.90;;;;;;4898484;29;20916;-69
2023/02/04 07:10:23;;;;;;;2.20;1.43;;;0.30;99.90;;;;;;4898208;29;20461;-69
2023/02/04 07:12:49;;;;;;;1.80;1.70;;;0.40;99.90;;;;;;4892994;29;20184;-71
2023/02/04 07:15:15;;;;;;;6.23;1.50;;;0.40;99.90;;;;;;4893065;29;20228;-71
2023/02/04 07:17:41;;;;;;;1.23;1.13;;;0.40;99.90;;;;;;4899501;29;20664;-70
2023/02/04 07:20:08;;;;;;;1.37;1.20;;;0.40;99.90;;;;;;4900313;29;20445;-68
2023/02/04 07:22:33;;;;;;;7.47;1.40;;;0.50;99.90;;;;;;4897941;29;20172;-69
2023/02/04 07:24:59;;;;;;;2.53;1.37;;;0.40;99.90;;;;;;4898216;29;20982;-70
2023/02/04 07:27:24;;;;;;;5.87;1.50;;;0.40;99.90;;;;;;4897716;29;20339;-71
2023/02/04 07:29:50;;;;;;;2.20;1.67;;;0.50;99.90;;;;;;4896401;29;20224;-70
2023/02/04 07:32:15;;;;;;;4.33;1.90;;;0.50;99.90;;;;;;4896242;29;20180;-70
2023/02/04 07:34:41;;;;;;;1.87;1.60;;;0.60;99.90;;;;;;4891526;29;20188;-68
2023/02/04 07:37:07;;;;;;;1.80;1.70;;;0.60;99.90;;;;;;4893100;29;20751;-70
2023/02/04 07:39:32;;;;;;;4.87;1.43;;;0.70;99.90;;;;;;4894521;29;20195;-70
2023/02/04 07:41:58;;;;;;;1.77;1.67;;;0.70;99.90;;;;;;4901212;29;20209;-70
2023/02/04 07:44:23;;;;;;;4.90;1.73;;;0.80;99.90;;;;;;4900996;29;20204;-70
2023/02/04 07:46:49;;;;;;;4.23;2.10;;;0.90;99.90;;;;;;4897393;29;20189;-70
2023/02/04 07:49:14;;;;;;;1.73;1.60;;;1.00;99.90;;;;;;4897010;29;20208;-70
2023/02/04 07:51:40;;;;;;;3.07;1.67;;;1.10;99.90;;;;;;4898152;29;20180;-70
2023/02/04 07:54:06;;;;;;;1.73;1.63;;;1.20;99.90;;;;;;4899646;29;20185;-70
2023/02/04 07:56:31;;;;;;;2.50;1.60;;;1.40;99.90;;;;;;4898641;29;20664;-70
2023/02/04 07:58:57;;;;;;;2.20;2.00;;;1.40;99.90;;;;;;4894160;29;20211;-70
2023/02/04 08:01:22;;;;;;;2.73;1.70;;;1.40;99.90;;;;;;4898150;29;20255;-70
2023/02/04 08:03:48;;;;;;;2.13;1.57;;;1.60;99.90;;;;;;4896948;29;20208;-70
2023/02/04 08:06:14;;;;;;;1.60;1.50;;;1.60;99.90;;;;;;4897770;29;20184;-70
2023/02/04 08:08:39;;;;;;;2.20;1.90;;;1.60;99.90;;;;;;4897785;29;20180;-70
2023/02/04 08:11:05;;;;;;;4.63;1.70;;;1.70;99.90;;;;;;4893913;29;20231;-69
2023/02/04 08:13:30;;;;;;;2.07;1.40;;;1.70;99.90;;;;;;4897626;29;20192;-70
2023/02/04 08:15:56;;;;;;;2.30;1.67;;;1.90;99.90;;;;;;4897105;29;20180;-69
2023/02/04 08:18:23;;;;;;;2.87;2.57;;;2.30;99.90;;;;;;4895237;29;20208;-70
2023/02/04 08:20:49;;;;;;;2.47;1.77;;;3.20;99.90;;;;;;4897580;29;20211;-70
2023/02/04 08:23:15;;;;;;;4.17;2.20;;;4.20;99.90;;;;;;4897325;29;20424;-69
2023/02/04 08:25:40;;;;;;;11.13;2.07;;;4.80;99.90;;;;;;4904092;29;20444;-71
2023/02/04 08:28:06;;;;;;;3.50;1.70;;;5.20;99.90;;;;;;4893415;29;20188;-69
2023/02/04 08:30:32;;;;;;;1.87;1.40;;;5.30;99.90;;;;;;4897466;29;20259;-71
2023/02/04 08:32:58;;;;;;;1.60;1.50;;;5.60;99.90;;;;;;4894021;29;20456;-71
2023/02/04 08:35:23;;;;;;;2.10;1.20;;;5.70;99.90;;;;;;4892973;29;20188;-69
2023/02/04 08:37:49;;;;;;;2.23;1.60;;;5.90;99.90;;;;;;4903711;29;20340;-69
2023/02/04 08:40:15;;;;;;;1.77;1.27;;;5.90;99.90;;;;;;4896805;29;20200;-70
2023/02/04 08:42:40;;;;;;;1.53;1.43;;;5.80;99.90;;;;;;4889921;29;20204;-69
2023/02/04 08:45:06;;;;;;;2.70;1.00;;;6.00;99.90;;;;;;4896891;29;20267;-70
2023/02/04 08:47:31;;;;;;;4.93;1.57;;;5.50;99.90;;;;;;4889523;29;20192;-70
2023/02/04 08:49:57;;;;;;;3.00;1.63;;;4.90;99.90;;;;;;4894882;29;20440;-70
2023/02/04 08:52:23;;;;;;;5.83;1.20;;;4.40;99.90;;;;;;4891587;29;20762;-70
2023/02/04 08:54:48;;;;;;;2.00;1.80;;;4.40;99.90;;;;;;4897021;29;20188;-68
2023/02/04 08:57:14;;;;;;;3.83;1.77;;;5.00;99.90;;;;;;4896781;29;20211;-69
2023/02/04 08:59:39;;;;;;;1.00;1.00;;;5.70;99.90;;;;;;4896454;29;20208;-69
2023/02/04 09:02:05;;;;;;;2.00;1.60;;;6.20;99.90;;;;;;4889690;29;20183;-69
2023/02/04 09:04:31;;;;;;;3.30;1.10;;;6.30;99.90;;;;;;4895145;29;20181;-70
2023/02/04 09:06:56;;;;;;;5.60;1.37;;;6.70;99.90;;;;;;4894264;29;20661;-69
2023/02/04 09:09:22;;;;;;;2.00;1.20;;;7.20;99.90;;;;;;4896899;29;20203;-69
2023/02/04 09:11:48;;;;;;;1.73;1.23;;;7.60;99.90;;;;;;4892706;29;20188;-69
2023/02/04 09:14:13;;;;;;;2.67;1.17;;;8.00;99.90;;;;;;4897719;29;20185;-70
2023/02/04 09:16:39;;;;;;;1.33;1.23;;;7.80;99.90;;;;;;4896170;29;20590;-71
2023/02/04 09:19:07;;;;;;;1.00;0.90;;;7.80;99.90;;;;;;4897191;29;20209;-69
2023/02/04 09:21:33;;;;;;;2.70;1.20;;;7.60;99.90;;;;;;4894547;29;20335;-69
2023/02/04 09:23:59;;;;;;;1.30;0.90;;;7.80;99.90;;;;;;4897225;29;20510;-69
2023/02/04 09:26:25;;;;;;;2.23;1.73;;;7.30;99.90;;;;;;4897849;29;20456;-69
2023/02/04 09:28:50;;;;;;;1.40;0.90;;;6.70;99.90;;;;;;4898832;29;20195;-69
2023/02/04 09:31:16;;;;;;;2.30;1.10;;;6.60;99.90;;;;;;4900583;29;20209;-71
2023/02/04 09:33:42;;;;;;;1.20;1.03;;;5.80;99.90;;;;;;4890949;29;20228;-71
2023/02/04 09:36:07;;;;;;;4.37;1.40;;;5.40;99.90;;;;;;4896479;29;20487;-70
2023/02/04 09:38:33;;;;;;;2.00;1.07;;;5.60;99.90;;;;;;4890298;29;20217;-70
2023/02/04 09:41:04;;;;;;;1.80;1.30;;;5.40;99.90;;;;;;4893721;29;20209;-70
2023/02/04 09:43:34;;;;;;;1.10;1.00;;;6.00;99.90;;;;;;4910775;29;20459;-71
2023/02/04 09:46:01;;;;;;;2.83;1.53;;;6.20;99.90;;;;;;4893461;29;20461;-70
2023/02/04 09:48:27;;;;;;;1.77;1.13;;;5.80;99.90;;;;;;4897290;29;20990;-70
2023/02/04 09:51:03;;;;;;;3.20;1.10;;;5.50;99.90;;;;;;4895945;29;20534;-69
2023/02/04 09:53:30;;;;;;;2.50;1.67;;;5.50;99.90;;;;;;4896473;29;20186;-70
2023/02/04 09:56:05;;;;;;;0.90;0.80;;;5.40;99.90;;;;;;4890283;29;20812;-72
2023/02/04 09:58:33;;;;;;;3.37;0.90;;;5.20;99.90;;;;;;4887898;29;20964;-71
2023/02/04 10:01:05;;;;;;;1.13;1.03;;;4.60;99.90;;;;;;4893980;29;20469;-69
2023/02/04 10:03:31;;;;;;;0.93;0.83;;;4.70;99.90;;;;;;4896479;29;20419;-69
2023/02/04 10:05:57;;;;;;;1.33;1.17;;;4.70;99.90;;;;;;4897800;29;20943;-70
2023/02/04 10:08:28;;;;;;;1.60;1.00;;;4.70;99.90;;;;;;4895380;29;20650;-70
2023/02/04 10:10:54;;;;;;;1.10;1.00;;;4.40;99.90;;;;;;4897168;29;20243;-70
2023/02/04 10:13:29;;;;;;;1.50;1.10;;;4.50;99.90;;;;;;4902188;29;20493;-69
2023/02/04 10:15:55;;;;;;;3.23;1.00;;;4.40;99.90;;;;;;4893637;29;20824;-70
2023/02/04 10:18:27;;;;;;;3.77;1.20;;;4.20;99.90;;;;;;4904567;29;20468;-69
2023/02/04 10:21:07;;;;;;;1.40;1.30;;;4.20;99.90;;;;;;4899527;29;20616;-70
2023/02/04 10:23:33;;;;;;;3.20;0.90;;;4.20;99.90;;;;;;4894769;29;20499;-70
2023/02/04 10:25:59;;;;;;;1.67;1.43;;;4.20;99.90;;;;;;4906617;29;20448;-70
2023/02/04 10:28:35;;;;;;;1.10;1.00;;;4.20;99.90;;;;;;4895197;29;20184;-70
2023/02/04 10:31:01;;;;;;;0.87;0.80;;;4.10;99.90;;;;;;4935168;23;20656;-67
2023/02/04 10:33:26;;;;;;;1.70;1.00;;;4.10;99.90;;;;;;4916460;29;20419;-67
2023/02/04 10:35:56;;;;;;;1.10;1.00;;;4.10;99.90;;;;;;4915796;29;20212;-68
2023/02/04 10:38:23;;;;;;;1.40;1.00;;;4.40;99.90;;;;;;4904230;29;21013;-68
2023/02/04 10:41:04;;;;;;;1.63;1.10;;;4.20;99.90;;;;;;4905382;29;20807;-67
2023/02/04 10:43:30;;;;;;;3.70;1.10;;;4.20;99.90;;;;;;4896006;29;20516;-67
2023/02/04 10:46:01;;;;;;;1.40;1.07;;;4.00;99.90;;;;;;4900762;29;20499;-67
2023/02/04 10:48:29;;;;;;;1.20;1.00;;;4.20;99.90;;;;;;4891698;29;20461;-67
2023/02/04 10:50:57;;;;;;;3.60;1.20;;;4.40;99.90;;;;;;4892597;29;20535;-69
2023/02/04 10:56:21;;;;;;;4.77;1.63;;;4.60;99.90;;;;;;4895234;29;20977;-68
2023/02/04 10:58:48;;;;;;;1.97;0.77;;;4.70;99.90;;;;;;4896387;29;20452;-67
2023/02/04 11:01:15;;;;;;;1.80;1.00;;;4.60;99.90;;;;;;4893826;29;20425;-68
2023/02/04 11:03:41;;;;;;;1.23;1.00;;;4.40;99.90;;;;;;4895452;29;20478;-69
2023/02/04 11:06:19;;;;;;;2.87;0.93;;;4.30;99.90;;;;;;4892610;29;20537;-68
2023/02/04 11:08:45;;;;;;;3.90;1.43;;;4.40;99.90;;;;;;4890260;29;20787;-68
2023/02/04 11:11:18;;;;;;;1.10;1.00;;;4.60;99.90;;;;;;4896806;29;20448;-68
2023/02/04 11:13:48;;;;;;;0.73;0.73;;;4.60;99.90;;;;;;4893773;29;20429;-66
2023/02/04 11:16:16;;;;;;;3.27;1.40;;;4.60;99.90;;;;;;4896162;29;20416;-70
2023/02/04 11:18:52;;;;;;;3.80;1.20;;;4.60;99.90;;;;;;4892996;29;20464;-68
2023/02/04 11:21:27;;;;;;;1.43;0.80;;;4.70;99.90;;;;;;4896840;29;20487;-68
2023/02/04 11:24:15;;;;;;;2.00;0.80;;;4.70;99.90;;;;;;4894126;29;20839;-68
2023/02/04 11:26:46;;;;;;;1.37;1.00;;;4.60;99.90;;;;;;4896476;29;20401;-69
2023/02/04 11:29:14;;;;;;;1.90;0.90;;;4.60;99.90;;;;;;4882648;29;20516;-68
2023/02/04 11:31:59;;;;;;;1.00;0.90;;;4.60;99.90;;;;;;4898114;29;20508;-68
2023/02/04 11:34:28;;;;;;;1.03;0.90;;;4.50;99.90;;;;;;4899136;29;20420;-68
2023/02/04 11:37:01;;;;;;;1.63;0.90;;;4.50;99.90;;;;;;4891455;29;20472;-69
2023/02/04 11:39:38;;;;;;;1.93;1.13;;;4.50;99.90;;;;;;4896789;29;20828;-68
2023/02/04 11:42:13;;;;;;;1.40;0.90;;;4.50;99.90;;;;;;4896762;29;20869;-68
2023/02/04 11:44:39;;;;;;;1.93;0.90;;;4.20;99.90;;;;;;4895764;29;20432;-68
2023/02/04 11:47:07;;;;;;;2.30;0.90;;;4.10;99.90;;;;;;4907172;29;20924;-68
2023/02/04 11:49:35;;;;;;;0.77;0.77;;;4.20;99.90;;;;;;4894421;29;20172;-67
2023/02/04 11:52:10;;;;;;;0.90;0.80;;;3.90;99.90;;;;;;4891128;29;20773;-68
2023/02/04 11:54:36;;;;;;;0.80;0.80;;;3.90;99.90;;;;;;4893182;29;20408;-68
2023/02/04 11:57:02;;;;;;;1.00;0.90;;;3.90;99.90;;;;;;4893929;29;20582;-68
2023/02/04 11:59:27;;;;;;;0.93;0.83;;;4.00;99.90;;;;;;4895447;29;20228;-68
2023/02/04 12:02:15;;;;;;;1.67;0.90;;;4.00;99.90;;;;;;4894524;29;20448;-68
2023/02/04 12:04:50;;;;;;;5.13;1.10;;;4.20;99.90;;;;;;4891396;29;20595;-68
2023/02/04 12:07:23;;;;;;;6.00;1.10;;;4.20;99.90;;;;;;4893650;29;20527;-67
2023/02/04 12:09:49;;;;;;;1.40;0.90;;;4.50;99.90;;;;;;4890674;29;20519;-68
2023/02/04 12:12:23;;;;;;;2.10;1.00;;;4.50;99.90;;;;;;4895994;29;20533;-69
2023/02/04 12:14:57;;;;;;;0.70;0.70;;;4.50;99.90;;;;;;4890756;29;20187;-68
2023/02/04 12:17:22;;;;;;;0.87;0.83;;;4.30;99.90;;;;;;4894858;29;20940;-68
2023/02/04 12:19:48;;;;;;;1.60;1.50;;;4.20;99.90;;;;;;4888631;29;20428;-68
2023/02/04 12:22:14;;;;;;;2.77;0.90;;;4.40;99.90;;;;;;4891052;29;20223;-69
2023/02/04 12:24:40;;;;;;;0.90;0.80;;;4.50;99.90;;;;;;4895536;29;20674;-68
2023/02/04 12:27:06;;;;;;;0.90;0.87;;;4.60;99.90;;;;;;4895572;29;20431;-69
2023/02/04 12:29:31;;;;;;;0.80;0.80;;;4.80;99.90;;;;;;4895520;29;20436;-68
2023/02/04 12:31:57;;;;;;;1.50;1.40;;;4.80;99.90;;;;;;4895509;29;20593;-68
2023/02/04 12:34:23;;;;;;;0.73;0.73;;;4.80;99.90;;;;;;4890048;29;20568;-67
2023/02/04 12:36:49;;;;;;;1.20;0.90;;;4.60;99.90;;;;;;4895867;29;20204;-68
2023/02/04 12:39:14;;;;;;;0.87;0.80;;;4.50;99.90;;;;;;4890810;29;20804;-68
2023/02/04 12:41:40;;;;;;;1.40;1.00;;;4.20;99.90;;;;;;4895212;29;20192;-69
2023/02/04 12:44:05;;;;;;;3.13;0.93;;;4.20;99.90;;;;;;4893958;29;20177;-68
2023/02/04 12:46:31;;;;;;;0.80;0.80;;;4.10;99.90;;;;;;4895204;29;20343;-68
2023/02/04 12:48:57;;;;;;;2.43;1.00;;;3.90;99.90;;;;;;4896458;29;20181;-69
2023/02/04 12:51:22;;;;;;;0.80;0.80;;;3.90;99.90;;;;;;4893942;29;20236;-68
2023/02/04 12:53:48;;;;;;;1.07;0.97;;;4.00;99.90;;;;;;4892103;29;20444;-69
2023/02/04 12:56:14;;;;;;;1.20;0.83;;;4.10;99.90;;;;;;4897110;29;20259;-69
2023/02/04 12:58:40;;;;;;;0.90;0.90;;;4.20;99.90;;;;;;4891370;29;20230;-69